Capitol Logistics 7360

Operating for MZN



KABE
Lehigh Valley International Airport
Allentown, Pennsylvania
KAFW
Fort Worth Alliance Airport
Fort Worth, Texas

Activity Log

Date Flight Route Aircraft Duration
No Flights Yet

Route Details

Aircraft Information
Group: North America Fleet
Types: B738,B752,B762,B763
Route Data
Distance: 1145nm
Duration: 3h 00m
Recm'd Route: HOTEE Q480 VINSE Q480 AIR IIU J78 FAM FSM RRNET TRUUK2
Origin Wx: KABE 160751Z 18005KT 10SM FEW075 FEW095 20/16 A2979 RMK AO2 SLP086 T02000156 $
Dest. Wx: KAFW 160753Z 32006KT 10SM CLR 10/06 A3031 RMK AO2 SLP258 T01000056
Notes:

Financial History
Total Freight: 0lbs
Average Load: 0lbs/flt
Fuel Used: 0lbs
Avg. Fuel Used: 0lbs/flt
Fuel Expense: $0
Avg. Fuel Expense: $0
Avg. Fuel Cost: $0/lbs
Total Gross Income: $0
Pilot Pay: $0
Total Expenses: $0
Total Revenue: $0
Average Revenue: $0